Time;durP1;ratioP1;P1;durP2;ratioP2;P2;SDS_P1;SDS_P2;PMS_P1;PMS_P2;Temp;Humidity;BMP_temperature;BMP_pressure;BME280_temperature;BME280_humidity;BME280_pressure;Samples;Min_cycle;Max_cycle;Signal;HPM_P1;HPM_P2
2021/11/21 07:41:10;;;;;;;112.07;70.85;;;153.90;2252.80;;;;;;5554358;23;20067;31
2021/11/21 08:07:44;;;;;;;61.40;42.10;;;179.80;2252.80;;;;;;5123745;23;20057;-79
2021/11/21 08:30:20;;;;;;;47.17;36.05;;;205.70;2252.80;;;;;;4825179;29;20156;-79
2021/11/21 08:35:44;;;;;;;48.03;34.53;;;230.70;2252.80;;;;;;4787558;29;20187;-79
2021/11/21 08:38:11;;;;;;;48.30;34.28;;;231.00;2252.80;;;;;;4809134;29;20512;-80
2021/11/21 08:40:37;;;;;;;50.45;35.20;;;231.10;2252.80;;;;;;4808309;29;20388;-79
2021/11/21 08:43:05;;;;;;;45.53;33.15;;;231.20;2252.80;;;;;;4808032;29;20504;-80
2021/11/21 08:45:33;;;;;;;40.20;31.55;;;231.30;2252.80;;;;;;4808122;29;20437;-81
2021/11/21 08:48:02;;;;;;;43.38;31.63;;;256.10;2252.80;;;;;;4823408;29;20484;-80
2021/11/21 08:50:29;;;;;;;70.05;35.55;;;256.30;2252.80;;;;;;4807599;29;20446;-80
2021/11/21 08:52:55;;;;;;;53.85;36.67;;;256.50;2252.80;;;;;;4807558;29;20536;-79
2021/11/21 08:55:22;;;;;;;56.13;38.90;;;256.70;2252.80;;;;;;4807696;29;20489;-80
2021/11/21 08:57:48;;;;;;;48.70;35.92;;;256.80;2252.80;;;;;;4822979;29;20039;-81
2021/11/21 09:00:15;;;;;;;43.13;31.42;;;281.60;2278.40;;;;;;4807829;29;20444;-80
2021/11/21 09:02:43;;;;;;;37.38;29.92;;;281.80;2278.40;;;;;;4812346;29;20458;-79
2021/11/21 09:05:10;;;;;;;41.75;28.30;;;307.30;2304.00;;;;;;4881169;29;20088;-80
2021/11/21 09:07:41;;;;;;;33.80;24.90;;;333.20;2201.60;;;;;;4897308;29;20462;-79
2021/11/21 09:10:16;;;;;;;33.08;24.35;;;384.00;1971.20;;;;;;4898469;29;20351;-78
2021/11/21 09:12:43;;;;;;;27.33;23.17;;;435.40;1715.20;;;;;;4881699;29;20470;-78
2021/11/21 09:15:15;;;;;;;25.15;22.45;;;435.50;1612.80;;;;;;4881550;29;20111;-78
2021/11/21 09:17:44;;;;;;;27.92;22.95;;;460.90;1587.20;;;;;;4898304;29;20104;-78
2021/11/21 09:20:11;;;;;;;26.38;22.88;;;486.60;1459.20;;;;;;4881502;29;20382;-77
2021/11/21 09:22:37;;;;;;;25.55;22.60;;;486.80;1459.20;;;;;;4898341;29;20025;-78
2021/11/21 09:25:05;;;;;;;26.63;23.08;;;486.50;1459.20;;;;;;4897391;29;20484;-82
2021/11/21 09:27:31;;;;;;;28.63;24.63;;;512.30;1382.40;;;;;;4882708;29;20410;-84
2021/11/21 09:42:54;;;;;;;24.80;20.35;;;615.30;1024.00;;;;;;5502420;23;20056;-89
2021/11/21 09:45:20;;;;;;;28.73;24.05;;;589.30;1100.80;;;;;;4871208;29;20028;-90
2021/11/21 09:47:51;;;;;;;24.20;19.88;;;564.00;1152.00;;;;;;4898500;29;20029;-89
2021/11/21 09:50:19;;;;;;;22.10;19.75;;;589.00;1126.40;;;;;;4881997;29;20503;-91
2021/11/21 09:52:45;;;;;;;23.83;19.98;;;640.60;1024.00;;;;;;4881712;29;20396;-89
2021/11/21 09:55:12;;;;;;;20.23;18.20;;;742.40;870.40;;;;;;4881989;29;20025;-93
2021/11/21 09:57:38;;;;;;;22.40;18.83;;;793.70;844.80;;;;;;4880119;29;20092;-94
2021/11/21 10:00:14;;;;;;;21.92;19.73;;;819.20;742.40;;;;;;4885693;29;20059;-92
2021/11/21 10:02:45;;;;;;;26.08;21.75;;;844.90;742.40;;;;;;4885660;29;20025;-92
2021/11/21 10:05:24;;;;;;;22.58;20.38;;;819.80;716.80;;;;;;4883859;29;20036;-90
2021/11/21 10:08:02;;;;;;;23.17;19.85;;;870.60;665.60;;;;;;4885175;29;20127;-91
2021/11/21 10:10:39;;;;;;;23.15;20.65;;;820.00;691.20;;;;;;4883455;29;20045;-90
2021/11/21 10:13:28;;;;;;;24.63;22.08;;;819.70;716.80;;;;;;4883259;29;20025;-90
2021/11/21 10:15:56;;;;;;;23.65;21.15;;;793.60;768.00;;;;;;4885295;29;20028;-90
2021/11/21 10:18:22;;;;;;;22.17;19.77;;;768.00;819.20;;;;;;4886226;29;20024;-92
2021/11/21 10:20:48;;;;;;;24.45;21.77;;;717.60;768.00;;;;;;4887533;29;20048;-91
2021/11/21 10:23:15;;;;;;;31.92;26.95;;;716.80;819.20;;;;;;4886880;29;20032;-90
2021/11/21 10:25:51;;;;;;;27.80;23.00;;;640.30;921.60;;;;;;4886830;29;20025;-93
2021/11/21 10:28:20;;;;;;;30.73;23.25;;;589.20;1049.60;;;;;;4887163;29;20052;-91
2021/11/21 10:30:57;;;;;;;27.08;24.17;;;;;;;;;;4885886;29;20032;-92
2021/11/21 10:33:36;;;;;;;33.70;27.88;;;691.70;844.80;;;;;;4880276;29;20021;-90
2021/11/21 10:36:29;;;;;;;29.52;25.88;;;;;;;;;;4870529;29;20033;-92
2021/11/21 10:39:00;;;;;;;30.15;23.17;;;614.80;972.80;;;;;;4887617;29;20044;-94
2021/11/21 10:41:30;;;;;;;30.27;26.45;;;589.30;1075.20;;;;;;4894814;29;20032;-92
2021/11/21 10:44:14;;;;;;;30.60;22.38;;;640.00;998.40;;;;;;4886630;29;20136;-89
2021/11/21 10:46:42;;;;;;;24.27;21.13;;;666.40;870.40;;;;;;4885464;29;20407;-90
2021/11/21 10:49:16;;;;;;;27.80;21.55;;;640.50;921.60;;;;;;4885204;29;20100;-91
2021/11/21 10:51:43;;;;;;;24.98;22.25;;;614.70;998.40;;;;;;4885351;29;20545;-89
2021/11/21 10:54:22;;;;;;;27.20;23.23;;;691.50;844.80;;;;;;4885226;29;20032;-91
2021/11/21 10:56:53;;;;;;;23.55;21.08;;;691.80;819.20;;;;;;4885003;29;20044;-90
2021/11/21 10:59:42;;;;;;;23.63;20.38;;;614.50;998.40;;;;;;4884975;29;20029;-91
2021/11/21 11:02:11;;;;;;;26.75;22.30;;;589.60;1049.60;;;;;;4885762;29;20032;-90
2021/11/21 11:04:39;;;;;;;22.48;20.05;;;563.50;1126.40;;;;;;4886101;29;20055;-89
2021/11/21 11:07:15;;;;;;;25.55;20.17;;;512.00;1203.20;;;;;;4885336;29;20552;-91
2021/11/21 11:09:43;;;;;;;39.55;21.48;;;461.40;1331.20;;;;;;4870230;29;20135;-88
2021/11/21 11:12:09;;;;;;;27.25;19.50;;;460.90;1408.00;;;;;;4884875;29;20025;-92
2021/11/21 11:14:35;;;;;;;22.67;19.13;;;436.00;1612.80;;;;;;4884927;29;20508;-91
2021/11/21 11:17:01;;;;;;;32.85;20.30;;;435.70;1459.20;;;;;;4886799;29;20366;-89
2021/11/21 11:19:29;;;;;;;46.88;33.55;;;435.50;1459.20;;;;;;4884610;29;20032;-92
2021/11/21 11:21:55;;;;;;;23.40;20.13;;;435.40;1484.80;;;;;;4884557;29;20092;-94
2021/11/21 11:24:23;;;;;;;29.67;22.63;;;435.20;1510.40;;;;;;4885162;29;20115;-91
2021/11/21 11:27:25;;;;;;;25.30;20.90;;;410.50;1561.60;;;;;;4884282;29;20033;-91
2021/11/21 11:29:52;;;;;;;19.80;15.68;;;410.40;1561.60;;;;;;4871900;29;20057;-95
2021/11/21 11:32:23;;;;;;;18.73;16.77;;;410.00;1587.20;;;;;;4866584;29;20025;-91
2021/11/21 11:34:50;;;;;;;24.38;18.65;;;409.70;1638.40;;;;;;4866051;29;20029;-90
2021/11/21 11:37:43;;;;;;;25.33;18.88;;;409.70;1612.80;;;;;;4865906;29;20029;-93
2021/11/21 11:40:27;;;;;;;40.38;21.98;;;409.70;1664.00;;;;;;4866476;29;20037;-90
2021/11/21 11:42:55;;;;;;;31.25;18.98;;;409.80;1638.40;;;;;;4865105;29;20474;-90
2021/11/21 11:45:44;;;;;;;30.27;19.73;;;409.60;1638.40;;;;;;4866987;29;20057;-91
2021/11/21 11:48:34;;;;;;;26.13;20.35;;;384.90;1638.40;;;;;;4865933;29;20032;-91
2021/11/21 11:51:04;;;;;;;36.55;23.70;;;384.90;1638.40;;;;;;4865402;29;20033;-90
2021/11/21 11:53:43;;;;;;;26.98;20.65;;;409.60;1664.00;;;;;;4865354;29;20029;-90
2021/11/21 11:56:21;;;;;;;35.42;23.50;;;409.70;1664.00;;;;;;4881277;29;20224;-93
2021/11/21 11:59:00;;;;;;;27.15;21.02;;;409.60;1664.00;;;;;;4865352;29;20419;-90
2021/11/21 12:01:32;;;;;;;26.30;20.65;;;409.70;1689.60;;;;;;4864874;29;20038;-88
2021/11/21 12:04:03;;;;;;;29.05;22.00;;;410.00;1612.80;;;;;;4865291;29;20044;-89
2021/11/21 12:06:41;;;;;;;21.65;18.00;;;435.30;1561.60;;;;;;4865033;29;20029;-90
2021/11/21 12:09:16;;;;;;;30.75;20.30;;;410.30;1587.20;;;;;;4865098;29;20068;-89
2021/11/21 12:11:59;;;;;;;26.38;19.00;;;410.40;1587.20;;;;;;4864831;29;20032;-90
2021/11/21 12:14:39;;;;;;;22.63;17.80;;;435.20;1561.60;;;;;;4864839;29;20037;-90
2021/11/21 12:17:09;;;;;;;24.83;18.60;;;435.80;1510.40;;;;;;4864777;29;20097;-89
2021/11/21 12:19:42;;;;;;;27.85;20.15;;;461.40;1510.40;;;;;;4865169;29;20068;-90
2021/11/21 12:22:28;;;;;;;52.10;31.10;;;486.50;1382.40;;;;;;4864729;29;20029;-89
2021/11/21 12:25:17;;;;;;;45.70;27.98;;;461.40;1459.20;;;;;;4864552;29;20081;-92
2021/11/21 12:27:54;;;;;;;36.88;25.35;;;;;;;;;;4850801;29;20096;-88
2021/11/21 12:30:22;;;;;;;20.23;17.52;;;;;;;;;;4864775;29;20037;-89
2021/11/21 12:32:58;;;;;;;26.52;21.63;;;692.10;947.20;;;;;;4865782;29;20029;-89
2021/11/21 12:35:48;;;;;;;29.20;21.45;;;717.60;819.20;;;;;;4864840;29;20037;-90
2021/11/21 12:38:20;;;;;;;38.83;26.50;;;768.00;793.60;;;;;;4864368;29;20143;-91
2021/11/21 12:40:51;;;;;;;178.10;89.70;;;794.10;768.00;;;;;;4864954;29;20033;-90
2021/11/21 12:43:19;;;;;;;37.20;26.70;;;742.50;819.20;;;;;;4864951;29;20049;-90
2021/11/21 12:45:48;;;;;;;24.83;20.33;;;666.40;870.40;;;;;;4864631;29;20045;-90
2021/11/21 12:48:19;;;;;;;26.23;18.55;;;691.20;844.80;;;;;;4864433;29;20025;-91
2021/11/21 12:50:51;;;;;;;24.67;20.95;;;691.40;844.80;;;;;;4865543;29;20124;-90
2021/11/21 12:53:21;;;;;;;80.25;44.75;;;717.30;793.60;;;;;;4864180;29;20051;-90
2021/11/21 12:55:54;;;;;;;31.13;24.45;;;717.50;793.60;;;;;;4875763;29;20500;-91
2021/11/21 12:58:43;;;;;;;23.05;18.20;;;768.10;793.60;;;;;;4883986;29;20494;-93
2021/11/21 13:01:10;;;;;;;28.45;24.88;;;768.90;768.00;;;;;;4884729;29;20029;-93
2021/11/21 13:03:37;;;;;;;95.53;54.45;;;819.30;716.80;;;;;;4883457;29;20096;-94
2021/11/21 13:06:06;;;;;;;32.35;25.00;;;819.20;716.80;;;;;;4882465;29;20032;-90
2021/11/21 13:08:36;;;;;;;20.23;18.02;;;819.80;691.20;;;;;;4882242;29;20039;-90
2021/11/21 13:11:08;;;;;;;48.72;33.67;;;820.10;665.60;;;;;;4882360;29;20092;-91
2021/11/21 13:13:40;;;;;;;20.50;18.40;;;845.10;691.20;;;;;;4881315;29;20027;-90
2021/11/21 13:16:18;;;;;;;19.02;17.02;;;870.60;640.00;;;;;;4873394;29;20033;-91
2021/11/21 13:18:46;;;;;;;19.92;17.70;;;871.20;614.40;;;;;;4875739;29;20036;-95
2021/11/21 13:21:20;;;;;;;24.88;20.33;;;896.30;588.80;;;;;;4881603;29;20088;-92
2021/11/21 13:23:50;;;;;;;31.50;23.60;;;896.70;563.20;;;;;;4883732;29;20060;-90
2021/11/21 13:26:17;;;;;;;23.88;18.98;;;896.30;588.80;;;;;;4890258;29;20031;-90
2021/11/21 13:28:54;;;;;;;20.58;18.48;;;896.00;588.80;;;;;;4884314;29;20515;-93
2021/11/21 13:31:30;;;;;;;24.83;22.05;;;871.20;588.80;;;;;;4886054;29;20052;-92
2021/11/21 13:34:07;;;;;;;24.77;22.08;;;871.00;614.40;;;;;;4885523;29;20124;-91
2021/11/21 13:36:48;;;;;;;30.52;21.05;;;870.90;614.40;;;;;;4883325;29;20071;-90
2021/11/21 13:39:28;;;;;;;29.42;25.10;;;845.50;640.00;;;;;;4882448;29;20039;-88
2021/11/21 13:42:03;;;;;;;28.85;23.02;;;845.00;665.60;;;;;;4882643;29;20071;-90
2021/11/21 13:44:31;;;;;;;29.58;21.67;;;819.80;665.60;;;;;;4883133;29;20152;-90
2021/11/21 13:47:03;;;;;;;27.88;24.05;;;819.40;665.60;;;;;;4884659;29;20081;-89
2021/11/21 13:49:36;;;;;;;22.30;18.40;;;794.10;716.80;;;;;;4882625;29;20496;-93
2021/11/21 13:52:06;;;;;;;19.30;17.33;;;768.90;691.20;;;;;;4887365;29;20311;-88
2021/11/21 13:54:39;;;;;;;22.65;19.33;;;768.00;768.00;;;;;;4886429;29;20053;-94
2021/11/21 13:57:24;;;;;;;58.72;48.92;;;743.10;793.60;;;;;;4887046;29;20033;-91
2021/11/21 13:59:52;;;;;;;29.40;26.17;;;742.50;819.20;;;;;;4886729;29;20032;-92
2021/11/21 14:02:48;;;;;;;37.13;30.70;;;717.60;793.60;;;;;;4886618;29;20032;-89
2021/11/21 14:05:23;;;;;;;30.00;23.05;;;716.80;793.60;;;;;;4867154;29;20036;-90
2021/11/21 14:07:53;;;;;;;27.80;23.02;;;666.00;844.80;;;;;;4886051;29;20103;-92
2021/11/21 14:10:19;;;;;;;28.88;23.58;;;614.40;998.40;;;;;;4886146;29;20048;-88
2021/11/21 14:12:45;;;;;;;33.72;22.88;;;563.70;1100.80;;;;;;4887383;29;20029;-91
2021/11/21 14:15:16;;;;;;;24.92;21.80;;;537.90;1126.40;;;;;;4888416;29;20496;-90
2021/11/21 14:17:46;;;;;;;30.25;22.13;;;512.30;1177.60;;;;;;4887399;29;20027;-91
2021/11/21 14:20:54;;;;;;;48.83;35.60;;;487.10;1228.80;;;;;;4886835;29;20123;-92
2021/11/21 14:23:23;;;;;;;71.05;42.40;;;486.50;1280.00;;;;;;4888574;29;20036;-93
2021/11/21 14:25:55;;;;;;;62.00;38.97;;;461.50;1331.20;;;;;;4888095;29;20051;-92
2021/11/21 14:28:27;;;;;;;67.05;44.90;;;461.00;1382.40;;;;;;4890862;29;20033;-93
2021/11/21 14:30:55;;;;;;;164.75;85.95;;;436.10;1382.40;;;;;;4885610;29;20032;-89
2021/11/21 14:33:33;;;;;;;278.08;139.27;;;435.70;1433.60;;;;;;4882147;29;20040;-90
2021/11/21 14:36:04;;;;;;;204.68;112.38;;;435.40;1459.20;;;;;;4885000;29;20061;-88
2021/11/21 14:38:32;;;;;;;333.35;180.55;;;435.20;1510.40;;;;;;4884928;29;20497;-87
2021/11/21 14:41:01;;;;;;;99.50;62.08;;;410.40;1536.00;;;;;;4884730;29;20031;-90
2021/11/21 14:43:29;;;;;;;107.28;52.15;;;410.10;1561.60;;;;;;4884702;29;20120;-89
2021/11/21 14:45:55;;;;;;;92.60;64.20;;;409.90;1587.20;;;;;;4884804;29;20024;-89
2021/11/21 14:48:30;;;;;;;176.95;125.80;;;409.70;1612.80;;;;;;4884979;29;20024;-90
2021/11/21 14:50:56;;;;;;;176.32;121.72;;;384.90;1612.80;;;;;;4884994;29;20047;-91
2021/11/21 14:53:23;;;;;;;292.15;149.43;;;384.70;1612.80;;;;;;4884726;29;20112;-92
2021/11/21 14:55:57;;;;;;;66.35;47.00;;;384.50;1664.00;;;;;;4884689;29;20088;-90
2021/11/21 14:58:30;;;;;;;52.67;37.42;;;384.40;1664.00;;;;;;4884725;29;20137;-90
2021/11/21 15:00:59;;;;;;;157.68;90.80;;;384.10;1715.20;;;;;;4884275;29;20033;-90
2021/11/21 15:03:25;;;;;;;155.75;97.07;;;384.00;1715.20;;;;;;4883288;29;20032;-92
2021/11/21 15:05:52;;;;;;;333.08;171.95;;;359.20;1740.80;;;;;;4884355;29;20032;-91
2021/11/21 15:08:20;;;;;;;447.55;218.77;;;359.10;1766.40;;;;;;4884146;29;20115;-91
2021/11/21 15:10:47;;;;;;;392.05;170.18;;;358.90;1817.60;;;;;;4884102;29;20044;-93
2021/11/21 15:13:13;;;;;;;212.82;88.72;;;358.80;1817.60;;;;;;4884360;29;20020;-89
2021/11/21 15:15:39;;;;;;;182.10;78.55;;;358.50;1817.60;;;;;;4884001;29;20039;-90
2021/11/21 15:18:05;;;;;;;168.88;80.00;;;358.60;1868.80;;;;;;4883165;29;20033;-92
2021/11/21 15:20:31;;;;;;;115.68;50.92;;;358.50;1868.80;;;;;;4884460;29;20101;-92
2021/11/21 15:22:57;;;;;;;151.82;76.57;;;358.40;1894.40;;;;;;4884291;29;20029;-92
2021/11/21 15:25:23;;;;;;;86.53;48.20;;;333.70;1920.00;;;;;;4869876;29;20037;-91
2021/11/21 15:27:49;;;;;;;88.72;57.72;;;333.50;1920.00;;;;;;4865933;29;20363;-91
2021/11/21 15:30:15;;;;;;;92.97;51.88;;;333.50;1945.60;;;;;;4865499;29;20128;-90
2021/11/21 15:32:40;;;;;;;75.07;45.97;;;333.30;1971.20;;;;;;4865891;29;20031;-90
2021/11/21 15:35:07;;;;;;;157.35;66.68;;;333.30;1996.80;;;;;;4865368;29;20039;-92
2021/11/21 15:37:34;;;;;;;102.75;59.97;;;333.10;2022.40;;;;;;4865607;29;20029;-91
2021/11/21 15:39:59;;;;;;;94.88;58.63;;;333.00;2278.40;;;;;;4865608;29;20036;-92
2021/11/21 15:42:26;;;;;;;112.28;73.85;;;333.00;2048.00;;;;;;4865088;29;20025;-90
2021/11/21 15:44:52;;;;;;;93.80;57.38;;;333.50;2073.60;;;;;;4865651;29;20060;-92
2021/11/21 15:47:19;;;;;;;105.05;70.05;;;332.80;2073.60;;;;;;4865335;29;20048;-91
2021/11/21 15:49:45;;;;;;;72.28;51.35;;;308.10;2073.60;;;;;;4865353;29;20068;-92
2021/11/21 15:52:11;;;;;;;78.35;51.47;;;308.00;2073.60;;;;;;4865229;29;20120;-92
2021/11/21 15:54:38;;;;;;;86.72;47.72;;;308.00;2099.20;;;;;;4872047;29;20037;-92
2021/11/21 15:57:09;;;;;;;81.75;46.90;;;307.90;2124.80;;;;;;4865240;29;20030;-93
2021/11/21 15:59:36;;;;;;;82.20;50.22;;;307.80;2124.80;;;;;;4865161;29;20032;-91
2021/11/21 16:04:40;;;;;;;152.05;81.53;;;307.70;2150.40;;;;;;5529260;23;20055;-90
2021/11/21 16:07:10;;;;;;;270.23;133.90;;;307.60;2176.00;;;;;;4883581;29;20101;-91
2021/11/21 16:09:37;;;;;;;441.60;251.68;;;307.60;2176.00;;;;;;4883215;29;20180;-91
2021/11/21 16:12:03;;;;;;;267.27;138.68;;;307.50;2176.00;;;;;;4883217;29;20029;-89
2021/11/21 16:14:29;;;;;;;201.35;107.88;;;307.40;2201.60;;;;;;4882907;29;20035;-89
2021/11/21 16:17:00;;;;;;;448.10;211.93;;;307.40;2201.60;;;;;;4861617;29;20037;-91
2021/11/21 16:19:27;;;;;;;350.67;171.60;;;307.30;2201.60;;;;;;4864605;29;20124;-91
2021/11/21 16:21:53;;;;;;;328.77;168.15;;;307.30;2201.60;;;;;;4864455;29;20025;-91
2021/11/21 16:24:20;;;;;;;283.65;155.25;;;307.20;2227.20;;;;;;4864324;29;20048;-93
2021/11/21 16:26:50;;;;;;;221.75;131.88;;;307.20;2227.20;;;;;;4864273;29;20085;-91
2021/11/21 16:29:24;;;;;;;180.75;112.03;;;282.50;2227.20;;;;;;4879827;29;20033;-89
2021/11/21 16:31:50;;;;;;;147.48;93.97;;;282.40;2227.20;;;;;;4879835;29;20124;-91
2021/11/21 16:34:17;;;;;;;164.95;102.80;;;282.40;2227.20;;;;;;4876592;29;20064;-92
2021/11/21 16:36:45;;;;;;;221.18;131.00;;;282.30;2227.20;;;;;;4883012;29;20032;-91
2021/11/21 16:39:11;;;;;;;156.02;98.88;;;282.20;2252.80;;;;;;4883081;29;20477;-91
2021/11/21 16:41:38;;;;;;;170.77;102.63;;;282.10;2252.80;;;;;;4869677;29;20043;-90
2021/11/21 16:44:10;;;;;;;301.92;167.82;;;282.10;2252.80;;;;;;4863958;29;20029;-87
2021/11/21 16:46:38;;;;;;;226.43;129.37;;;282.00;2278.40;;;;;;4862879;29;20041;-86
2021/11/21 16:49:04;;;;;;;193.63;113.15;;;282.00;2278.40;;;;;;4873813;29;20044;-90
2021/11/21 16:51:30;;;;;;;195.73;122.25;;;281.90;2278.40;;;;;;4884375;29;20085;-90
2021/11/21 16:53:56;;;;;;;147.95;94.70;;;281.80;2278.40;;;;;;4873206;29;20025;-90
2021/11/21 16:56:22;;;;;;;100.55;67.65;;;281.80;2278.40;;;;;;4879896;29;20061;-90
2021/11/21 16:58:53;;;;;;;88.07;59.78;;;281.70;2278.40;;;;;;4881874;29;20418;-90
2021/11/21 17:01:19;;;;;;;93.00;65.20;;;281.70;2278.40;;;;;;4882118;29;20024;-90
2021/11/21 17:03:46;;;;;;;111.80;73.10;;;281.60;2278.40;;;;;;4864075;29;20029;-89
2021/11/21 17:06:12;;;;;;;79.47;54.00;;;281.60;2278.40;;;;;;4866257;29;20061;-86
2021/11/21 17:08:38;;;;;;;85.07;53.22;;;256.90;2252.80;;;;;;4868465;29;20037;-89
2021/11/21 17:11:05;;;;;;;86.20;54.60;;;256.90;2252.80;;;;;;4882793;29;20025;-89
2021/11/21 17:13:37;;;;;;;85.90;56.47;;;256.80;2252.80;;;;;;4900799;29;20036;-87
2021/11/21 17:16:04;;;;;;;90.53;58.92;;;256.70;2252.80;;;;;;4879875;29;20028;-88
2021/11/21 17:21:18;;;;;;;97.95;62.65;;;256.60;2252.80;;;;;;4910424;29;20084;-89
2021/11/21 17:23:45;;;;;;;101.93;63.15;;;256.50;2252.80;;;;;;4893959;29;20029;-88
2021/11/21 17:30:09;;;;;;;178.05;90.60;;;256.40;2252.80;;;;;;4925867;29;20060;-89
2021/11/21 17:32:35;;;;;;;385.08;187.18;;;256.30;2252.80;;;;;;4899720;29;20049;-87
2021/11/21 17:35:02;;;;;;;233.02;122.50;;;256.30;2252.80;;;;;;4904636;29;20020;-86
2021/11/21 17:50:59;;;;;;;167.70;91.20;;;231.30;2252.80;;;;;;4925832;29;20568;-87
2021/11/21 17:53:59;;;;;;;185.80;111.93;;;231.30;2252.80;;;;;;4894059;29;20016;-88
2021/11/21 17:59:49;;;;;;;171.10;111.82;;;231.20;2252.80;;;;;;4859723;29;20050;-87
2021/11/21 18:02:58;;;;;;;156.65;104.28;;;231.20;2252.80;;;;;;4853990;29;20030;-87
2021/11/21 18:19:28;;;;;;;123.70;80.05;;;231.00;2252.80;;;;;;4851012;29;20088;-93
2021/11/21 18:33:02;;;;;;;126.97;75.70;;;230.80;2252.80;;;;;;4814464;29;20022;-94
2021/11/21 18:35:34;;;;;;;119.97;76.45;;;230.80;2252.80;;;;;;4887236;29;20044;-92
2021/11/21 18:38:37;;;;;;;117.40;77.05;;;230.80;2252.80;;;;;;4868675;29;20082;-93
2021/11/21 19:16:02;;;;;;;127.22;80.20;;;230.70;2252.80;;;;;;4798267;29;20054;-91
2021/11/21 19:27:11;;;;;;;164.82;97.55;;;230.50;2252.80;;;;;;4925016;29;20046;-91
2021/11/21 19:34:32;;;;;;;144.55;85.85;;;230.50;2252.80;;;;;;4925068;29;20031;-90
